Time;durP1;ratioP1;P1;durP2;ratioP2;P2;SDS_P1;SDS_P2;PMS_P1;PMS_P2;Temp;Humidity;BMP_temperature;BMP_pressure;BME280_temperature;BME280_humidity;BME280_pressure;Samples;Min_cycle;Max_cycle;Signal;HPM_P1;HPM_P2
2022/05/13 00:01:47;;;;;;;4.30;2.90;;;;;;;22.66;51.36;100122.56;4987007;28;20061;-92
2022/05/13 00:04:14;;;;;;;7.45;3.15;;;;;;;22.69;50.99;100127.53;4981029;28;20042;-91
2022/05/13 00:06:41;;;;;;;4.57;2.70;;;;;;;22.65;51.00;100113.59;4975850;28;20054;-87
2022/05/13 00:09:08;;;;;;;8.27;3.13;;;;;;;22.67;50.44;100124.19;4980021;28;20070;-89
2022/05/13 00:11:34;;;;;;;6.88;2.67;;;;;;;22.71;50.16;100120.06;4980077;28;20042;-88
2022/05/13 00:14:02;;;;;;;4.30;2.33;;;;;;;22.71;49.81;100118.16;4973980;28;20043;-88
2022/05/13 00:16:28;;;;;;;5.28;2.58;;;;;;;22.70;49.94;100112.97;4982406;28;20097;-88
2022/05/13 00:18:56;;;;;;;6.75;2.92;;;;;;;22.70;49.81;100126.53;4985421;28;20158;-89
2022/05/13 00:21:50;;;;;;;4.50;2.72;;;;;;;22.65;49.92;100126.31;4977545;28;20457;-88
2022/05/13 00:24:16;;;;;;;5.07;2.90;;;;;;;22.68;50.01;100121.31;4920351;28;20479;-88
2022/05/13 00:26:43;;;;;;;8.05;2.95;;;;;;;22.65;50.01;100124.44;4982583;28;20054;-87
2022/05/13 00:29:10;;;;;;;6.53;2.80;;;;;;;22.63;50.07;100106.72;4987624;28;20046;-94
2022/05/13 00:31:36;;;;;;;4.30;3.05;;;;;;;22.59;50.43;100121.72;4984941;28;20097;-93
2022/05/13 00:34:04;;;;;;;7.25;2.45;;;;;;;22.54;50.72;100123.19;4989599;28;20141;-93
2022/05/13 00:37:01;;;;;;;6.15;2.78;;;;;;;22.49;50.48;100125.69;4991112;28;20142;-94
2022/05/13 00:39:27;;;;;;;5.43;3.15;;;;;;;22.53;49.90;100116.09;4968447;28;20051;-93
2022/05/13 00:41:54;;;;;;;6.30;2.85;;;;;;;22.54;49.72;100120.47;4968156;28;20043;-93
2022/05/13 00:44:21;;;;;;;6.93;2.80;;;;;;;22.52;49.40;100119.00;4992440;28;20499;-94
2022/05/13 00:46:48;;;;;;;7.05;3.22;;;;;;;22.54;49.90;100112.34;4978039;28;20141;-93
2022/05/13 00:49:17;;;;;;;8.05;2.95;;;;;;;22.53;50.00;100124.19;4964635;28;20058;-83
2022/05/13 00:51:46;;;;;;;6.97;2.50;;;;;;;22.51;50.05;100128.97;4958891;28;20510;-78
2022/05/13 00:54:14;;;;;;;6.03;2.53;;;;;;;22.49;50.22;100120.25;4978279;28;20047;-78
2022/05/13 00:56:43;;;;;;;8.52;2.70;;;;;;;22.49;50.41;100116.69;4957080;28;20053;-78
2022/05/13 00:59:15;;;;;;;8.52;3.20;;;;;;;22.46;50.36;100106.28;4985655;28;20046;-78
2022/05/13 01:01:42;;;;;;;8.13;3.00;;;;;;;22.44;50.67;100111.06;4953906;28;20042;-78
2022/05/13 01:04:11;;;;;;;7.35;2.95;;;;;;;22.42;50.59;100115.88;4978729;28;20047;-78
2022/05/13 01:06:41;;;;;;;4.43;2.60;;;;;;;22.40;50.76;100107.97;4967440;28;20089;-78
2022/05/13 01:09:07;;;;;;;9.40;2.97;;;;;;;22.39;50.61;100121.69;4973952;28;20050;-78
2022/05/13 01:11:36;;;;;;;7.28;2.90;;;;;;;22.40;50.29;100128.78;4964277;28;20046;-78
2022/05/13 01:14:08;;;;;;;6.93;3.17;;;;;;;22.38;49.97;100131.69;4972438;28;20046;-78
2022/05/13 01:19:21;;;;;;;13.38;3.20;;;;;;;22.39;50.28;100116.28;4962536;28;20049;-83
2022/05/13 01:21:48;;;;;;;6.55;2.90;;;;;;;22.38;49.97;100112.75;4979777;28;20046;-93
2022/05/13 01:24:19;;;;;;;5.82;2.60;;;;;;;22.34;50.31;100111.50;4972832;28;20043;-81
2022/05/13 01:26:46;;;;;;;7.47;2.65;;;;;;;22.36;49.83;100105.88;4960231;28;20569;-81
2022/05/13 01:29:13;;;;;;;4.93;2.88;;;;;;;22.33;49.97;100112.53;4974311;28;20718;-81
2022/05/13 01:31:43;;;;;;;8.68;3.03;;;;;;;22.33;50.20;100115.22;4963742;28;20094;-81
2022/05/13 01:34:12;;;;;;;5.53;2.75;;;;;;;22.32;50.22;100116.28;4964248;28;20051;-81
2022/05/13 01:36:40;;;;;;;7.20;2.88;;;;;;;22.33;49.73;100124.16;4940572;28;20043;-81
2022/05/13 01:39:08;;;;;;;5.75;2.80;;;;;;;22.35;49.61;100115.88;4976234;28;20073;-81
2022/05/13 01:41:35;;;;;;;8.45;2.47;;;;;;;22.36;49.61;100127.50;4981741;28;20043;-81
2022/05/13 01:44:02;;;;;;;7.55;2.83;;;;;;;22.38;49.39;100120.03;4964816;28;20050;-80
2022/05/13 01:46:29;;;;;;;7.00;2.88;;;;;;;22.39;49.48;100100.91;4957453;28;20047;-81
2022/05/13 01:48:56;;;;;;;5.97;2.92;;;;;;;22.39;49.41;100110.84;4975387;28;20042;-80
2022/05/13 01:51:23;;;;;;;5.28;2.40;;;;;;;22.37;49.71;100107.56;4974898;28;20078;-81
2022/05/13 01:53:50;;;;;;;6.22;3.10;;;;;;;22.35;49.96;100112.31;4981861;28;20063;-81
2022/05/13 01:56:16;;;;;;;7.28;2.80;;;;;;;22.32;49.65;100110.88;4979853;28;20121;-81
2022/05/13 01:58:43;;;;;;;6.05;2.75;;;;;;;22.31;49.60;100118.16;4968749;28;20385;-81
2022/05/13 02:01:10;;;;;;;6.35;3.03;;;;;;;22.33;49.23;100112.53;4976666;28;20081;-80
2022/05/13 02:03:46;;;;;;;7.68;3.10;;;;;;;22.33;49.29;100109.81;4964208;28;20046;-80
2022/05/13 02:06:19;;;;;;;7.20;2.92;;;;;;;22.30;49.34;100105.66;4945091;28;20128;-81
2022/05/13 02:08:47;;;;;;;7.65;2.60;;;;;;;22.30;49.37;100104.81;4990154;28;20054;-81
2022/05/13 02:11:14;;;;;;;7.18;2.75;;;;;;;22.27;49.61;100102.53;4974407;28;20125;-81
2022/05/13 02:13:41;;;;;;;3.30;2.35;;;;;;;22.21;49.99;100112.31;4993624;28;20050;-81
2022/05/13 02:16:08;;;;;;;3.80;2.50;;;;;;;22.17;50.04;100111.00;4977108;28;20647;-81
2022/05/13 02:18:35;;;;;;;4.70;2.55;;;;;;;22.14;50.06;100116.84;4972285;28;20126;-81
2022/05/13 02:21:03;;;;;;;6.97;2.60;;;;;;;22.08;50.03;100110.38;4974702;28;20046;-77
2022/05/13 02:23:29;;;;;;;6.00;2.70;;;;;;;22.06;49.92;100111.63;4959716;28;20399;-78
2022/05/13 02:25:59;;;;;;;3.95;2.80;;;;;;;22.04;49.79;100108.28;4957533;28;20075;-77
2022/05/13 02:28:26;;;;;;;5.03;2.70;;;;;;;22.05;49.44;100094.53;4965573;28;20050;-77
2022/05/13 02:30:53;;;;;;;5.25;2.85;;;;;;;22.03;49.71;100104.75;4975046;28;20790;-77
2022/05/13 02:33:20;;;;;;;3.30;2.60;;;;;;;22.01;49.52;100097.88;4957608;28;20059;-78
2022/05/13 02:35:47;;;;;;;7.32;2.88;;;;;;;21.98;49.94;100106.38;4973437;28;21555;-77
2022/05/13 02:38:15;;;;;;;5.72;2.60;;;;;;;21.96;49.95;100106.59;4978730;28;20068;-77
2022/05/13 02:43:28;;;;;;;5.63;2.45;;;;;;;21.97;48.63;100107.44;4974091;28;20054;-77
2022/05/13 02:45:55;;;;;;;9.23;3.47;;;;;;;22.01;48.25;100109.53;4971468;28;20510;-77
2022/05/13 02:48:22;;;;;;;7.10;2.83;;;;;;;22.03;48.29;100115.56;4961272;28;20050;-78
2022/05/13 02:50:49;;;;;;;5.78;2.78;;;;;;;22.04;48.62;100117.22;4978038;28;20053;-77
2022/05/13 02:53:16;;;;;;;6.07;2.90;;;;;;;22.04;48.82;100114.50;4943336;28;20047;-77
2022/05/13 02:55:43;;;;;;;7.90;2.70;;;;;;;22.04;48.33;100114.50;4958734;28;20055;-78
2022/05/13 02:58:10;;;;;;;4.47;2.50;;;;;;;22.02;48.62;100116.59;4960493;28;20038;-77
2022/05/13 03:00:37;;;;;;;4.43;2.60;;;;;;;22.02;48.87;100115.75;4966442;28;20047;-77
2022/05/13 03:03:05;;;;;;;3.40;2.20;;;;;;;22.00;48.82;100118.66;4970033;28;20046;-78
2022/05/13 03:05:33;;;;;;;5.88;2.42;;;;;;;21.98;48.64;100130.72;4956856;28;20439;-77
2022/05/13 03:08:01;;;;;;;5.90;3.17;;;;;;;21.96;48.70;100122.00;4994948;28;20049;-80
2022/05/13 03:10:32;;;;;;;9.05;2.72;;;;;;;21.93;48.80;100122.38;4980562;28;20101;-80
2022/05/13 03:12:59;;;;;;;10.90;3.08;;;;;;;21.92;48.79;100121.53;4977242;28;20409;-80
2022/05/13 03:15:27;;;;;;;6.47;2.55;;;;;;;21.92;48.95;100113.44;4964033;28;20038;-82
2022/05/13 03:17:55;;;;;;;4.60;2.60;;;;;;;21.89;49.18;100120.09;4966831;28;20109;-81
2022/05/13 03:20:23;;;;;;;6.38;3.60;;;;;;;21.89;49.29;100119.25;4976701;28;20055;-82
2022/05/13 03:22:51;;;;;;;7.25;3.38;;;;;;;21.86;49.45;100120.50;4978369;28;20050;-82
2022/05/13 03:25:20;;;;;;;6.72;3.28;;;;;;;21.83;49.72;100114.63;4978277;28;20434;-81
2022/05/13 03:27:48;;;;;;;7.82;3.00;;;;;;;21.79;49.70;100116.09;4978439;28;20046;-81
2022/05/13 03:30:17;;;;;;;6.93;3.05;;;;;;;21.77;49.72;100123.56;4962859;28;20038;-81
2022/05/13 03:32:44;;;;;;;5.70;2.80;;;;;;;21.74;49.84;100116.69;4972562;28;20482;-81
2022/05/13 03:35:12;;;;;;;8.35;3.30;;;;;;;21.74;50.08;100126.69;4974970;28;20580;-81
2022/05/13 03:37:39;;;;;;;6.72;2.47;;;;;;;21.71;49.89;100124.38;4980173;28;20105;-81
2022/05/13 03:40:07;;;;;;;5.75;2.78;;;;;;;21.69;49.75;100129.97;4974647;28;20078;-81
2022/05/13 03:42:37;;;;;;;7.63;3.17;;;;;;;21.66;50.25;100120.41;4968335;28;20046;-81
2022/05/13 03:45:07;;;;;;;6.78;2.90;;;;;;;21.65;50.43;100131.41;4986846;28;20077;-81
2022/05/13 03:47:34;;;;;;;8.23;3.05;;;;;;;21.64;50.30;100124.34;4978272;28;20402;-81
2022/05/13 03:50:00;;;;;;;5.38;2.85;;;;;;;21.64;50.01;100127.88;4980541;28;20050;-81
2022/05/13 03:52:27;;;;;;;10.18;3.15;;;;;;;21.66;49.71;100127.69;4989563;28;20043;-82
2022/05/13 03:54:54;;;;;;;3.25;2.42;;;;;;;21.66;49.62;100124.97;4972423;28;20042;-82
2022/05/13 03:57:21;;;;;;;6.75;2.70;;;;;;;21.67;49.08;100130.16;4984428;28;20121;-78
2022/05/13 03:59:47;;;;;;;11.73;3.30;;;;;;;21.65;49.48;100126.00;4983145;28;20056;-80
2022/05/13 04:02:14;;;;;;;7.47;3.10;;;;;;;21.65;49.21;100128.69;4971812;28;20046;-83
2022/05/13 04:10:13;;;;;;;7.20;2.85;;;;;;;21.60;49.63;100134.75;4990204;28;20039;-87
2022/05/13 04:18:11;;;;;;;11.52;3.03;;;;;;;21.52;50.05;100144.84;4975643;28;20562;-77
2022/05/13 04:20:38;;;;;;;4.60;2.67;;;;;;;21.49;50.22;100151.50;4975448;28;20050;-78
2022/05/13 04:23:05;;;;;;;8.23;3.00;;;;;;;21.45;50.38;100151.06;4990103;28;20043;-79
2022/05/13 04:25:32;;;;;;;5.20;2.72;;;;;;;21.44;50.60;100152.09;4963109;28;20039;-79
2022/05/13 04:27:59;;;;;;;7.20;3.05;;;;;;;21.42;50.60;100151.47;4983664;28;20056;-79
2022/05/13 04:30:25;;;;;;;6.75;2.80;;;;;;;21.42;50.38;100158.72;4951575;28;20049;-81
2022/05/13 04:32:52;;;;;;;6.78;2.83;;;;;;;21.41;50.62;100151.66;4977730;28;20053;-82
2022/05/13 04:35:19;;;;;;;6.70;3.45;;;;;;;21.39;50.74;100157.25;4982770;28;20038;-82
2022/05/13 04:37:46;;;;;;;10.13;3.15;;;;;;;21.40;50.74;100158.13;4975809;28;20120;-79
2022/05/13 04:40:13;;;;;;;7.22;2.88;;;;;;;21.40;50.12;100155.41;4975079;28;20045;-78
2022/05/13 04:42:49;;;;;;;5.00;2.53;;;;;;;21.41;50.16;100160.59;4982425;28;20479;-78
2022/05/13 04:45:25;;;;;;;8.90;2.65;;;;;;;21.39;49.75;100161.81;4956941;28;20382;-79
2022/05/13 04:50:52;;;;;;;7.88;2.85;;;;;;;21.39;50.41;100175.34;4959391;28;20522;-79
2022/05/13 04:53:25;;;;;;;5.53;2.80;;;;;;;21.38;50.02;100173.66;4983161;28;20050;-79
2022/05/13 04:55:53;;;;;;;6.22;2.67;;;;;;;21.37;50.02;100174.66;4961300;28;20046;-79
2022/05/13 04:58:22;;;;;;;7.78;3.03;;;;;;;21.38;50.02;100176.34;4964181;28;20046;-79
2022/05/13 05:00:50;;;;;;;6.80;2.80;;;;;;;21.38;50.32;100171.81;4977603;28;20050;-79
2022/05/13 05:03:19;;;;;;;6.93;3.10;;;;;;;21.35;50.48;100168.66;4964227;28;20042;-79
2022/05/13 05:05:46;;;;;;;6.22;2.72;;;;;;;21.39;51.09;100175.34;4980318;28;20490;-79
2022/05/13 05:08:13;;;;;;;8.07;2.80;;;;;;;21.39;51.23;100175.34;4980765;28;20049;-79
2022/05/13 05:10:41;;;;;;;8.40;2.80;;;;;;;21.39;51.28;100189.66;4974517;28;20051;-79
2022/05/13 05:13:08;;;;;;;8.52;3.20;;;;;;;21.42;51.36;100181.19;4943378;28;20520;-78
2022/05/13 05:15:36;;;;;;;5.18;2.85;;;;;;;21.44;51.04;100186.38;4970081;28;20112;-79
2022/05/13 05:18:03;;;;;;;7.30;2.92;;;;;;;21.46;50.93;100176.22;4940565;28;20042;-79
2022/05/13 05:20:30;;;;;;;8.20;3.20;;;;;;;21.50;50.66;100180.19;4963706;28;20047;-79
2022/05/13 05:22:57;;;;;;;9.57;3.05;;;;;;;21.54;50.44;100183.31;4930725;28;20066;-79
2022/05/13 05:25:28;;;;;;;10.38;2.70;;;;;;;21.54;50.52;100184.16;4955074;28;20122;-79
2022/05/13 05:27:56;;;;;;;12.27;2.80;;;;;;;21.58;50.41;100182.75;4951730;28;20049;-79
2022/05/13 05:30:24;;;;;;;6.63;2.70;;;;;;;21.61;50.26;100178.81;4946237;28;20054;-79
2022/05/13 05:32:51;;;;;;;9.45;2.70;;;;;;;21.63;49.98;100174.03;4964847;28;20560;-78
2022/05/13 05:35:21;;;;;;;6.63;3.00;;;;;;;21.65;49.75;100185.47;4978665;28;20050;-79
2022/05/13 05:37:48;;;;;;;8.85;2.53;;;;;;;21.66;49.83;100187.16;4971348;28;20050;-79
2022/05/13 05:40:15;;;;;;;9.35;3.03;;;;;;;21.67;49.50;100173.41;4972860;28;20097;-79
2022/05/13 05:42:43;;;;;;;11.95;2.78;;;;;;;21.67;49.51;100181.53;4963557;28;20046;-79
2022/05/13 05:45:12;;;;;;;6.80;2.28;;;;;;;21.67;49.59;100178.81;4962289;28;20039;-79
2022/05/13 05:47:39;;;;;;;5.90;2.63;;;;;;;21.72;49.33;100182.81;4980251;28;20053;-79
2022/05/13 05:50:08;;;;;;;4.13;2.50;;;;;;;21.71;49.22;100186.56;4972531;28;20046;-81
2022/05/13 05:52:35;;;;;;;8.35;2.60;;;;;;;21.70;49.03;100184.88;4966060;28;20058;-81
2022/05/13 05:58:09;;;;;;;9.05;2.88;;;;;;;21.70;48.60;100198.38;4960910;28;20053;-82
2022/05/13 06:00:39;;;;;;;9.20;3.22;;;;;;;21.75;49.08;100202.16;4947928;28;20475;-82
2022/05/13 06:03:06;;;;;;;9.95;2.72;;;;;;;21.77;48.65;100197.38;4973983;28;20667;-82
2022/05/13 06:05:33;;;;;;;10.65;3.50;;;;;;;21.77;48.57;100201.97;4977620;28;20402;-82
2022/05/13 06:08:01;;;;;;;13.65;3.58;;;;;;;21.77;48.61;100194.69;4967698;28;20041;-82
2022/05/13 06:10:29;;;;;;;5.32;2.92;;;;;;;21.76;48.66;100206.53;4978409;28;20058;-81
2022/05/13 06:12:58;;;;;;;8.55;2.50;;;;;;;21.76;48.73;100208.41;4975252;28;20066;-82
2022/05/13 06:15:25;;;;;;;7.30;2.90;;;;;;;21.75;48.84;100212.97;4976227;28;20047;-83
2022/05/13 06:17:53;;;;;;;8.43;2.70;;;;;;;21.75;48.40;100222.94;4977466;28;20046;-82
2022/05/13 06:20:24;;;;;;;8.13;2.67;;;;;;;21.75;48.12;100228.34;4975186;28;20125;-82
2022/05/13 06:22:51;;;;;;;8.02;2.95;;;;;;;21.72;48.04;100221.47;4972847;28;20034;-82
2022/05/13 06:25:21;;;;;;;6.78;2.55;;;;;;;21.72;48.27;100224.16;4973652;28;20129;-79
2022/05/13 06:27:49;;;;;;;7.68;2.42;;;;;;;21.71;48.45;100227.91;4954952;28;20043;-79
2022/05/13 06:30:25;;;;;;;6.93;2.83;;;;;;;21.69;47.00;100235.38;4970269;28;20494;-85
2022/05/13 06:32:53;;;;;;;4.93;2.30;;;;;;;21.71;47.52;100240.59;4976818;28;20046;-85
2022/05/13 06:35:21;;;;;;;6.78;2.60;;;;;;;21.70;47.24;100253.25;4961969;28;20052;-85
2022/05/13 06:37:48;;;;;;;7.53;2.38;;;;;;;21.73;47.78;100250.19;4991220;28;20160;-86
2022/05/13 06:40:15;;;;;;;9.10;2.80;;;;;;;21.74;47.54;100257.25;4977007;28;20512;-85
2022/05/13 06:42:42;;;;;;;7.15;2.35;;;;;;;21.78;47.13;100255.84;4975890;28;20125;-83
2022/05/13 06:45:11;;;;;;;7.53;2.20;;;;;;;21.79;46.69;100253.97;4979627;28;20046;-86
2022/05/13 06:47:38;;;;;;;5.50;2.05;;;;;;;21.79;46.58;100254.78;4962927;28;20046;-85
2022/05/13 06:50:07;;;;;;;6.05;2.30;;;;;;;21.80;46.69;100253.75;4969973;28;20043;-86
2022/05/13 06:52:34;;;;;;;7.38;2.53;;;;;;;21.84;46.85;100251.50;4979312;28;20050;-85
2022/05/13 06:55:10;;;;;;;5.00;2.60;;;;;;;21.89;46.80;100249.84;4974327;28;20043;-85
2022/05/13 06:57:39;;;;;;;9.30;2.53;;;;;;;21.92;46.30;100245.91;4972715;28;20065;-85
2022/05/13 07:00:10;;;;;;;7.18;2.38;;;;;;;21.89;46.65;100249.03;4985511;28;20048;-85
2022/05/13 07:02:37;;;;;;;5.68;2.20;;;;;;;21.93;46.92;100257.56;4982674;28;20439;-86
2022/05/13 07:05:05;;;;;;;7.25;2.70;;;;;;;21.91;46.64;100255.06;4976176;28;20498;-86
2022/05/13 07:07:31;;;;;;;5.20;2.28;;;;;;;21.97;46.18;100262.38;4974329;28;20469;-86
2022/05/13 07:09:58;;;;;;;5.75;1.90;;;;;;;21.98;45.89;100266.78;4981960;28;20578;-83
2022/05/13 07:12:25;;;;;;;7.40;2.35;;;;;;;22.02;46.03;100256.38;4978763;28;20050;-79
2022/05/13 07:14:53;;;;;;;6.45;2.45;;;;;;;22.02;45.96;100262.59;4976441;28;20113;-79
2022/05/13 07:17:20;;;;;;;7.07;2.22;;;;;;;22.10;45.64;100261.59;4948500;28;20047;-79
2022/05/13 07:19:47;;;;;;;7.22;2.45;;;;;;;22.12;45.60;100264.94;4979826;28;20684;-79
2022/05/13 07:22:14;;;;;;;7.40;2.47;;;;;;;22.17;45.14;100265.19;4966516;28;20102;-79
2022/05/13 07:24:41;;;;;;;4.65;2.58;;;;;;;22.21;45.52;100263.78;4972427;28;20070;-79
2022/05/13 07:27:08;;;;;;;7.18;2.13;;;;;;;22.21;45.71;100265.63;4958768;28;20050;-79
2022/05/13 07:29:34;;;;;;;6.00;2.05;;;;;;;22.23;45.56;100263.56;4974816;28;20101;-79
2022/05/13 07:32:01;;;;;;;8.65;1.90;;;;;;;22.11;45.53;100261.41;4973295;28;20391;-79
2022/05/13 07:34:28;;;;;;;5.75;2.30;;;;;;;22.27;45.12;100265.69;4975862;28;20129;-79
2022/05/13 07:36:56;;;;;;;9.77;2.05;;;;;;;22.20;45.28;100278.34;4977283;28;20046;-85
2022/05/13 07:42:10;;;;;;;3.90;2.20;;;;;;;22.13;45.77;100269.31;4973965;28;20043;-85
2022/05/13 07:44:37;;;;;;;8.25;2.22;;;;;;;22.10;45.37;100264.31;4958189;28;20078;-85
2022/05/13 07:47:06;;;;;;;7.30;2.30;;;;;;;22.09;44.76;100277.00;4938440;28;20047;-85
2022/05/13 07:49:34;;;;;;;4.50;2.03;;;;;;;22.03;45.17;100276.97;4971132;28;20057;-85
2022/05/13 07:52:03;;;;;;;8.57;2.67;;;;;;;22.02;44.05;100272.59;4946851;28;20042;-85
2022/05/13 07:54:30;;;;;;;7.43;2.33;;;;;;;21.94;44.04;100272.78;4952544;28;20054;-85
2022/05/13 07:56:57;;;;;;;9.35;2.15;;;;;;;21.93;44.55;100281.91;4971632;28;20088;-85
2022/05/13 07:59:23;;;;;;;6.32;2.30;;;;;;;21.93;44.70;100271.94;4983808;28;20050;-84
2022/05/13 08:01:50;;;;;;;6.28;2.83;;;;;;;21.81;44.31;100274.34;4970608;28;20046;-85
2022/05/13 08:04:17;;;;;;;3.42;2.20;;;;;;;21.79;44.91;100265.59;4963336;28;20582;-85
2022/05/13 08:06:44;;;;;;;7.57;2.42;;;;;;;21.88;45.22;100283.34;4956424;28;20059;-84
2022/05/13 08:09:12;;;;;;;6.15;2.92;;;;;;;21.91;44.15;100279.41;4965685;28;20105;-85
2022/05/13 08:11:39;;;;;;;5.25;2.50;;;;;;;21.86;44.01;100277.28;4958942;28;20051;-84
2022/05/13 08:14:06;;;;;;;8.57;2.28;;;;;;;21.62;42.62;100281.28;4975399;28;20082;-84
2022/05/13 08:16:35;;;;;;;5.55;2.38;;;;;;;21.68;43.46;100277.81;4948902;28;20046;-84
2022/05/13 08:19:03;;;;;;;6.05;1.90;;;;;;;21.73;43.59;100273.66;4964024;28;20061;-79
2022/05/13 08:21:30;;;;;;;8.55;2.50;;;;;;;21.84;43.15;100275.81;4977517;28;20047;-79
2022/05/13 08:23:57;;;;;;;3.80;1.60;;;;;;;21.92;43.02;100285.66;4979969;28;20058;-79
2022/05/13 08:26:24;;;;;;;7.13;1.90;;;;;;;21.98;43.79;100279.44;4966094;28;20054;-79
2022/05/13 08:28:50;;;;;;;7.05;2.10;;;;;;;21.97;42.53;100278.59;4986145;28;20573;-79
2022/05/13 08:31:44;;;;;;;6.25;2.10;;;;;;;21.78;41.50;100280.16;4976639;28;20046;-78
2022/05/13 08:34:12;;;;;;;8.57;2.50;;;;;;;21.78;41.81;100287.41;4967727;28;20047;-80
2022/05/13 08:36:40;;;;;;;9.45;2.10;;;;;;;21.83;42.91;100287.66;4982819;28;20050;-80
2022/05/13 08:39:10;;;;;;;6.63;2.13;;;;;;;21.92;42.56;100291.88;4971401;28;20057;-79
2022/05/13 08:42:04;;;;;;;8.52;2.03;;;;;;;21.88;40.72;100280.66;4956491;28;20153;-79
2022/05/13 08:44:32;;;;;;;8.95;1.60;;;;;;;21.81;41.58;100295.97;4916565;28;20043;-78
2022/05/13 08:47:10;;;;;;;6.07;1.80;;;;;;;21.72;41.94;100291.75;4963703;28;20046;-79
2022/05/13 08:49:52;;;;;;;5.85;1.98;;;;;;;21.66;41.78;100295.25;4993040;28;20514;-79
2022/05/13 08:55:30;;;;;;;4.35;1.95;;;;;;;21.85;42.03;100282.88;4964490;28;20050;-79
2022/05/13 08:58:00;;;;;;;6.72;1.90;;;;;;;21.82;42.33;100283.28;4961846;28;20043;-78
2022/05/13 09:00:31;;;;;;;7.72;1.90;;;;;;;21.81;42.04;100281.63;4951626;28;20043;-79
2022/05/13 09:03:35;;;;;;;12.77;2.10;;;;;;;21.95;41.91;100286.06;4958686;28;20069;-79
2022/05/13 09:06:11;;;;;;;7.32;2.05;;;;;;;21.88;40.85;100286.06;4876564;28;20079;-79
2022/05/13 09:08:45;;;;;;;8.05;2.17;;;;;;;21.73;41.57;100296.13;4948254;28;20637;-83
2022/05/13 09:11:26;;;;;;;5.63;1.90;;;;;;;21.58;41.01;100290.00;4962719;28;20064;-83
2022/05/13 09:13:52;;;;;;;4.78;1.77;;;;;;;21.65;42.05;100293.56;4930539;28;20064;-83
2022/05/13 09:16:29;;;;;;;6.05;1.90;;;;;;;21.37;41.07;100293.53;4979826;28;20047;-83
2022/05/13 09:19:03;;;;;;;4.82;2.10;;;;;;;21.41;41.81;100298.38;4985664;28;20066;-82
2022/05/13 09:21:30;;;;;;;5.28;2.20;;;;;;;21.50;40.91;100309.03;4959479;28;20039;-83
2022/05/13 09:23:57;;;;;;;5.55;2.28;;;;;;;21.28;41.32;100300.94;4982970;28;20058;-83
2022/05/13 09:26:26;;;;;;;6.22;1.80;;;;;;;21.39;42.09;100296.91;4980083;28;20101;-83
2022/05/13 09:29:10;;;;;;;6.40;2.28;;;;;;;21.44;41.21;100303.38;4965755;28;20133;-83
2022/05/13 09:31:46;;;;;;;10.93;2.67;;;;;;;21.30;41.54;100295.34;4948772;28;20046;-83
2022/05/13 09:34:29;;;;;;;5.50;2.15;;;;;;;21.38;40.98;100303.31;4969209;28;20122;-83
2022/05/13 09:37:05;;;;;;;7.60;2.22;;;;;;;21.39;40.93;100308.53;4927788;28;20038;-83
2022/05/13 09:39:36;;;;;;;3.95;2.10;;;;;;;21.45;41.45;100304.25;4963806;28;20507;-85
2022/05/13 09:42:20;;;;;;;9.00;2.25;;;;;;;21.30;42.04;100298.06;4965362;28;20058;-84
2022/05/13 09:44:48;;;;;;;4.95;2.03;;;;;;;21.43;41.49;100290.09;4947294;28;20082;-83
2022/05/13 09:47:24;;;;;;;6.50;1.90;;;;;;;21.17;40.94;100305.00;4960665;28;20082;-84
2022/05/13 09:50:31;;;;;;;6.20;1.83;;;;;;;21.31;41.67;100292.44;4959579;28;20514;-84
2022/05/13 09:53:26;;;;;;;5.07;1.83;;;;;;;21.43;42.00;100292.78;4959489;28;20060;-82
2022/05/13 09:55:55;;;;;;;4.60;2.45;;;;;;;21.50;42.44;100290.97;4943919;28;20038;-85
2022/05/13 09:58:28;;;;;;;7.35;2.20;;;;;;;21.56;42.04;100301.00;4968448;28;20046;-86
2022/05/13 10:01:02;;;;;;;7.03;2.45;;;;;;;21.52;41.78;100290.75;4980932;28;20049;-85
2022/05/13 10:03:36;;;;;;;6.05;2.28;;;;;;;21.62;42.37;100299.38;4960055;28;20126;-85
2022/05/13 10:06:04;;;;;;;9.38;2.40;;;;;;;21.59;41.33;100284.38;4967771;28;20061;-84
2022/05/13 10:13:57;;;;;;;6.38;2.30;;;;;;;21.59;41.48;100280.84;4968277;28;20133;-85
2022/05/13 10:14:39;;;;;;;7.88;2.00;;;;;;;21.82;41.65;100288.69;4930699;28;20047;-85
2022/05/13 10:17:16;;;;;;;5.28;2.40;;;;;;;21.71;41.63;100281.16;4958843;28;20047;-85
2022/05/13 10:19:50;;;;;;;7.55;2.75;;;;;;;21.85;41.19;100289.16;4977553;28;20046;-84
2022/05/13 10:22:19;;;;;;;7.22;2.28;;;;;;;21.94;41.59;100299.81;4986180;28;20042;-85
2022/05/13 10:24:57;;;;;;;8.07;1.98;;;;;;;21.93;41.48;100290.00;4978754;28;20050;-85
2022/05/13 10:27:27;;;;;;;7.10;2.20;;;;;;;21.94;40.57;100291.69;4974587;28;20050;-85
2022/05/13 10:29:57;;;;;;;8.50;2.50;;;;;;;21.96;40.82;100285.06;4973161;28;20066;-85
2022/05/13 10:32:39;;;;;;;6.53;2.45;;;;;;;21.93;40.75;100284.59;4960290;28;20041;-84
2022/05/13 10:35:10;;;;;;;6.53;2.33;;;;;;;21.98;41.15;100296.50;4975980;28;20116;-84
2022/05/13 10:37:51;;;;;;;5.70;2.00;;;;;;;21.72;41.24;100285.50;4978608;28;20047;-84
2022/05/13 10:40:19;;;;;;;7.35;2.42;;;;;;;21.64;41.28;100281.91;4975722;28;20060;-84
2022/05/13 10:43:04;;;;;;;6.55;2.15;;;;;;;21.54;41.17;100291.41;4966245;28;20050;-84
2022/05/13 10:45:32;;;;;;;5.20;2.10;;;;;;;21.72;42.05;100278.22;4964712;28;20509;-84
2022/05/13 10:47:58;;;;;;;9.82;2.30;;;;;;;21.86;41.15;100277.28;4971491;28;20042;-84
2022/05/13 10:51:04;;;;;;;9.52;2.20;;;;;;;21.63;41.01;100285.66;4976137;28;20042;-78
2022/05/13 10:53:46;;;;;;;7.22;2.20;;;;;;;21.92;40.67;100278.38;4900606;28;20053;-79
2022/05/13 10:56:21;;;;;;;7.03;1.98;;;;;;;22.06;42.27;100271.19;4901313;28;20550;-79
2022/05/13 10:59:11;;;;;;;7.28;2.10;;;;;;;22.14;40.93;100254.78;4912497;28;20038;-82
2022/05/13 11:02:16;;;;;;;4.68;2.20;;;;;;;22.13;41.67;100263.06;4922213;28;20054;-82
2022/05/13 11:05:02;;;;;;;10.40;2.70;;;;;;;22.19;41.10;100273.13;4933615;28;20047;-82
2022/05/13 11:07:34;;;;;;;6.00;2.03;;;;;;;22.04;40.99;100271.38;4927010;28;20050;-82
2022/05/13 11:10:17;;;;;;;8.38;2.20;;;;;;;22.08;40.88;100258.25;4968946;28;20066;-77
2022/05/13 11:13:11;;;;;;;8.98;2.35;;;;;;;22.02;40.19;100264.47;4993238;28;20110;-78
2022/05/13 11:15:42;;;;;;;8.10;2.80;;;;;;;22.11;39.87;100257.88;4939605;28;20102;-78
2022/05/13 11:18:46;;;;;;;8.32;2.20;;;;;;;22.06;40.57;100269.31;4968574;28;20043;-78
2022/05/13 11:21:24;;;;;;;9.68;2.17;;;;;;;22.14;40.43;100260.19;4953643;28;20050;-78
2022/05/13 11:27:33;;;;;;;7.25;2.13;;;;;;;22.17;39.97;100248.97;4945412;28;20057;-78
2022/05/13 11:30:16;;;;;;;7.78;2.22;;;;;;;22.29;41.45;100255.50;4927735;28;20495;-78
2022/05/13 11:33:20;;;;;;;5.90;2.05;;;;;;;22.29;40.86;100250.09;4950858;28;20522;-78
2022/05/13 11:35:46;;;;;;;;;;;;;;;22.36;40.79;100250.09;4965448;28;20127;-79
2022/05/13 11:38:18;;;;;;;4.40;1.90;;;;;;;22.58;40.70;100249.97;4986861;28;20368;-80
2022/05/13 11:40:58;;;;;;;4.63;1.90;;;;;;;22.55;39.99;100251.22;4963946;28;20517;-80
2022/05/13 11:44:02;;;;;;;5.20;2.40;;;;;;;22.53;38.69;100237.03;4897237;28;20047;-80
2022/05/13 11:46:41;;;;;;;2.90;1.80;;;;;;;22.66;40.23;100247.91;4983268;28;20042;-79
2022/05/13 11:49:26;;;;;;;8.25;2.50;;;;;;;22.72;38.68;100249.78;4913221;28;20058;-80
2022/05/13 11:51:55;;;;;;;5.32;1.80;;;;;;;22.75;39.69;100241.25;4972120;28;20268;-79
2022/05/13 11:54:30;;;;;;;4.78;2.03;;;;;;;22.75;38.69;100241.25;4957047;28;20038;-80
2022/05/13 11:57:18;;;;;;;7.95;2.38;;;;;;;22.73;39.42;100237.91;4978438;28;20109;-86
2022/05/13 11:59:56;;;;;;;7.43;2.30;;;;;;;22.81;39.50;100236.06;4952634;28;20073;-86
2022/05/13 12:02:34;;;;;;;6.95;2.15;;;;;;;22.93;39.38;100234.41;4983042;28;20664;-86
2022/05/13 12:05:04;;;;;;;3.95;2.17;;;;;;;22.95;39.37;100235.06;4932723;28;20036;-86
2022/05/13 12:07:38;;;;;;;5.22;2.10;;;;;;;22.89;39.26;100233.97;4985990;28;20051;-87
2022/05/13 12:10:06;;;;;;;4.68;2.38;;;;;;;22.98;39.18;100229.25;4964259;28;20129;-85
2022/05/13 12:12:50;;;;;;;7.03;2.15;;;;;;;22.92;39.25;100241.72;4993798;28;20057;-84
2022/05/13 12:15:37;;;;;;;7.00;2.00;;;;;;;22.91;38.55;100231.06;4974005;28;20116;-84
2022/05/13 12:18:15;;;;;;;5.57;2.38;;;;;;;23.14;38.27;100219.88;4965224;28;20042;-85